sensor_id;sensor_type;location;lat;lon;timestamp;temperature;humidity
8856;DHT22;4464;50.882;4.730;2023-03-12T00:01:10;5.40;99.20
8856;DHT22;4464;50.882;4.730;2023-03-12T00:03:36;5.50;99.20
8856;DHT22;4464;50.882;4.730;2023-03-12T00:06:03;5.50;99.20
8856;DHT22;4464;50.882;4.730;2023-03-12T00:08:31;5.50;99.10
8856;DHT22;4464;50.882;4.730;2023-03-12T00:10:56;5.50;99.20
8856;DHT22;4464;50.882;4.730;2023-03-12T00:13:22;5.40;99.20
8856;DHT22;4464;50.882;4.730;2023-03-12T00:15:48;5.50;99.50
8856;DHT22;4464;50.882;4.730;2023-03-12T00:18:16;5.50;99.40
8856;DHT22;4464;50.882;4.730;2023-03-12T00:20:52;5.40;99.20
8856;DHT22;4464;50.882;4.730;2023-03-12T00:23:18;5.30;99.50
8856;DHT22;4464;50.882;4.730;2023-03-12T00:25:47;5.30;99.70
8856;DHT22;4464;50.882;4.730;2023-03-12T00:28:12;5.20;99.60
8856;DHT22;4464;50.882;4.730;2023-03-12T00:30:40;5.20;99.90
8856;DHT22;4464;50.882;4.730;2023-03-12T00:33:10;5.20;99.90
8856;DHT22;4464;50.882;4.730;2023-03-12T00:35:37;5.20;99.90
8856;DHT22;4464;50.882;4.730;2023-03-12T00:38:03;5.20;99.90
8856;DHT22;4464;50.882;4.730;2023-03-12T00:40:29;5.20;99.90
8856;DHT22;4464;50.882;4.730;2023-03-12T00:42:58;5.10;99.90
8856;DHT22;4464;50.882;4.730;2023-03-12T00:45:23;5.20;99.90
8856;DHT22;4464;50.882;4.730;2023-03-12T00:47:49;5.20;99.90
8856;DHT22;4464;50.882;4.730;2023-03-12T00:50:18;5.20;99.90
8856;DHT22;4464;50.882;4.730;2023-03-12T00:52:44;5.20;99.90
8856;DHT22;4464;50.882;4.730;2023-03-12T00:55:09;5.30;99.90
8856;DHT22;4464;50.882;4.730;2023-03-12T00:57:35;5.30;99.90
8856;DHT22;4464;50.882;4.730;2023-03-12T01:00:03;5.30;99.90
8856;DHT22;4464;50.882;4.730;2023-03-12T01:02:35;5.40;99.90
8856;DHT22;4464;50.882;4.730;2023-03-12T01:05:03;5.30;99.90
8856;DHT22;4464;50.882;4.730;2023-03-12T01:07:32;5.30;99.90
8856;DHT22;4464;50.882;4.730;2023-03-12T01:09:57;5.30;99.90
8856;DHT22;4464;50.882;4.730;2023-03-12T01:12:23;5.30;99.90
8856;DHT22;4464;50.882;4.730;2023-03-12T01:14:49;5.30;99.90
8856;DHT22;4464;50.882;4.730;2023-03-12T01:17:15;5.30;99.90
8856;DHT22;4464;50.882;4.730;2023-03-12T01:19:41;5.30;99.90
8856;DHT22;4464;50.882;4.730;2023-03-12T01:22:11;5.40;99.90
8856;DHT22;4464;50.882;4.730;2023-03-12T01:24:36;5.30;99.90
8856;DHT22;4464;50.882;4.730;2023-03-12T01:27:02;5.40;99.90
8856;DHT22;4464;50.882;4.730;2023-03-12T01:29:28;5.30;99.90
8856;DHT22;4464;50.882;4.730;2023-03-12T01:31:54;5.30;99.90
8856;DHT22;4464;50.882;4.730;2023-03-12T01:34:20;5.30;99.90
8856;DHT22;4464;50.882;4.730;2023-03-12T01:36:46;5.40;99.90
8856;DHT22;4464;50.882;4.730;2023-03-12T01:39:16;5.30;99.90
8856;DHT22;4464;50.882;4.730;2023-03-12T01:41:45;5.20;99.90
8856;DHT22;4464;50.882;4.730;2023-03-12T01:44:13;5.20;99.90
8856;DHT22;4464;50.882;4.730;2023-03-12T01:46:40;5.20;99.90
8856;DHT22;4464;50.882;4.730;2023-03-12T01:49:29;5.20;99.90
8856;DHT22;4464;50.882;4.730;2023-03-12T01:52:14;5.20;99.90
8856;DHT22;4464;50.882;4.730;2023-03-12T01:57:20;5.10;99.90
8856;DHT22;4464;50.882;4.730;2023-03-12T01:59:57;5.10;99.90
8856;DHT22;4464;50.882;4.730;2023-03-12T02:02:25;5.00;99.90
8856;DHT22;4464;50.882;4.730;2023-03-12T02:07:47;4.90;99.90
8856;DHT22;4464;50.882;4.730;2023-03-12T02:10:16;4.90;99.90
8856;DHT22;4464;50.882;4.730;2023-03-12T02:12:41;4.90;99.90
8856;DHT22;4464;50.882;4.730;2023-03-12T02:15:08;4.90;99.90
8856;DHT22;4464;50.882;4.730;2023-03-12T02:17:35;4.90;99.90
8856;DHT22;4464;50.882;4.730;2023-03-12T02:20:15;4.90;99.90
8856;DHT22;4464;50.882;4.730;2023-03-12T02:22:48;4.90;99.90
8856;DHT22;4464;50.882;4.730;2023-03-12T02:28:03;4.90;99.90
8856;DHT22;4464;50.882;4.730;2023-03-12T02:30:32;4.80;99.90
8856;DHT22;4464;50.882;4.730;2023-03-12T02:33:01;4.80;99.90
8856;DHT22;4464;50.882;4.730;2023-03-12T02:35:29;4.70;99.90
8856;DHT22;4464;50.882;4.730;2023-03-12T02:37:58;4.70;99.90
8856;DHT22;4464;50.882;4.730;2023-03-12T02:40:25;4.60;99.90
8856;DHT22;4464;50.882;4.730;2023-03-12T02:42:54;4.60;99.90
8856;DHT22;4464;50.882;4.730;2023-03-12T02:45:23;4.50;99.90
8856;DHT22;4464;50.882;4.730;2023-03-12T02:47:51;4.50;99.90
8856;DHT22;4464;50.882;4.730;2023-03-12T02:50:16;4.60;99.90
8856;DHT22;4464;50.882;4.730;2023-03-12T02:52:42;4.50;99.90
8856;DHT22;4464;50.882;4.730;2023-03-12T02:55:08;4.60;99.90
8856;DHT22;4464;50.882;4.730;2023-03-12T02:57:37;4.60;99.90
8856;DHT22;4464;50.882;4.730;2023-03-12T03:00:07;4.70;99.90
8856;DHT22;4464;50.882;4.730;2023-03-12T03:02:40;4.70;99.90
8856;DHT22;4464;50.882;4.730;2023-03-12T03:05:07;4.60;99.90
8856;DHT22;4464;50.882;4.730;2023-03-12T03:07:33;4.70;99.90
8856;DHT22;4464;50.882;4.730;2023-03-12T03:10:02;4.60;99.90
8856;DHT22;4464;50.882;4.730;2023-03-12T03:12:34;4.70;99.90
8856;DHT22;4464;50.882;4.730;2023-03-12T03:15:01;4.60;99.90
8856;DHT22;4464;50.882;4.730;2023-03-12T03:17:27;4.60;99.90
8856;DHT22;4464;50.882;4.730;2023-03-12T03:19:53;4.60;99.90
8856;DHT22;4464;50.882;4.730;2023-03-12T03:22:20;4.60;99.90
8856;DHT22;4464;50.882;4.730;2023-03-12T03:24:48;4.70;99.90
8856;DHT22;4464;50.882;4.730;2023-03-12T03:27:14;4.60;99.90
8856;DHT22;4464;50.882;4.730;2023-03-12T03:29:40;4.60;99.90
8856;DHT22;4464;50.882;4.730;2023-03-12T03:32:06;4.60;99.90
8856;DHT22;4464;50.882;4.730;2023-03-12T03:34:32;4.60;99.90
8856;DHT22;4464;50.882;4.730;2023-03-12T03:36:58;4.60;99.90
8856;DHT22;4464;50.882;4.730;2023-03-12T03:39:24;4.60;99.90
8856;DHT22;4464;50.882;4.730;2023-03-12T03:41:50;4.70;99.90
8856;DHT22;4464;50.882;4.730;2023-03-12T03:44:19;4.60;99.90
8856;DHT22;4464;50.882;4.730;2023-03-12T03:46:46;4.60;99.90
8856;DHT22;4464;50.882;4.730;2023-03-12T03:49:12;4.60;99.90
8856;DHT22;4464;50.882;4.730;2023-03-12T03:51:38;4.60;99.90
8856;DHT22;4464;50.882;4.730;2023-03-12T03:54:08;4.60;99.90
8856;DHT22;4464;50.882;4.730;2023-03-12T03:56:33;4.70;99.90
8856;DHT22;4464;50.882;4.730;2023-03-12T03:58:59;4.70;99.90
8856;DHT22;4464;50.882;4.730;2023-03-12T04:01:27;4.70;99.90
8856;DHT22;4464;50.882;4.730;2023-03-12T04:03:53;4.70;99.90
8856;DHT22;4464;50.882;4.730;2023-03-12T04:06:19;4.70;99.90
8856;DHT22;4464;50.882;4.730;2023-03-12T04:08:47;4.70;99.90
8856;DHT22;4464;50.882;4.730;2023-03-12T04:11:17;4.80;99.90
8856;DHT22;4464;50.882;4.730;2023-03-12T04:13:47;4.80;99.90
8856;DHT22;4464;50.882;4.730;2023-03-12T04:16:16;4.80;99.90
8856;DHT22;4464;50.882;4.730;2023-03-12T04:18:47;4.80;99.90
8856;DHT22;4464;50.882;4.730;2023-03-12T04:21:16;4.80;99.90
8856;DHT22;4464;50.882;4.730;2023-03-12T04:23:46;4.80;99.90
8856;DHT22;4464;50.882;4.730;2023-03-12T04:26:12;4.80;99.90
8856;DHT22;4464;50.882;4.730;2023-03-12T04:28:40;4.80;99.90
8856;DHT22;4464;50.882;4.730;2023-03-12T04:31:07;4.80;99.90
8856;DHT22;4464;50.882;4.730;2023-03-12T04:33:35;4.90;99.90
8856;DHT22;4464;50.882;4.730;2023-03-12T04:36:04;4.90;99.90
8856;DHT22;4464;50.882;4.730;2023-03-12T04:38:30;4.90;99.90
8856;DHT22;4464;50.882;4.730;2023-03-12T04:41:07;4.90;99.90
8856;DHT22;4464;50.882;4.730;2023-03-12T04:43:34;5.00;99.90
8856;DHT22;4464;50.882;4.730;2023-03-12T04:45:59;5.00;99.90
8856;DHT22;4464;50.882;4.730;2023-03-12T04:48:26;5.10;99.90
8856;DHT22;4464;50.882;4.730;2023-03-12T04:50:52;5.00;99.90
8856;DHT22;4464;50.882;4.730;2023-03-12T04:53:20;5.00;99.90
8856;DHT22;4464;50.882;4.730;2023-03-12T04:55:46;5.00;99.90
8856;DHT22;4464;50.882;4.730;2023-03-12T04:58:12;5.00;99.90
8856;DHT22;4464;50.882;4.730;2023-03-12T05:00:39;5.00;99.90
8856;DHT22;4464;50.882;4.730;2023-03-12T05:03:05;5.10;99.90
8856;DHT22;4464;50.882;4.730;2023-03-12T05:05:32;5.10;99.90
8856;DHT22;4464;50.882;4.730;2023-03-12T05:07:58;5.10;99.90
8856;DHT22;4464;50.882;4.730;2023-03-12T05:10:27;5.10;99.90
8856;DHT22;4464;50.882;4.730;2023-03-12T05:12:52;5.10;99.90
8856;DHT22;4464;50.882;4.730;2023-03-12T05:15:18;5.20;99.90
8856;DHT22;4464;50.882;4.730;2023-03-12T05:17:44;5.20;99.90
8856;DHT22;4464;50.882;4.730;2023-03-12T05:20:11;5.20;99.90
8856;DHT22;4464;50.882;4.730;2023-03-12T05:22:37;5.10;99.90
8856;DHT22;4464;50.882;4.730;2023-03-12T05:25:03;5.20;99.90
8856;DHT22;4464;50.882;4.730;2023-03-12T05:27:32;5.10;99.90
8856;DHT22;4464;50.882;4.730;2023-03-12T05:29:57;5.20;99.90
8856;DHT22;4464;50.882;4.730;2023-03-12T05:32:26;5.10;99.90
8856;DHT22;4464;50.882;4.730;2023-03-12T05:34:52;5.10;99.90
8856;DHT22;4464;50.882;4.730;2023-03-12T05:37:17;5.10;99.90
8856;DHT22;4464;50.882;4.730;2023-03-12T05:39:45;5.20;99.90
8856;DHT22;4464;50.882;4.730;2023-03-12T05:42:15;5.20;99.90
8856;DHT22;4464;50.882;4.730;2023-03-12T05:44:42;5.30;99.90
8856;DHT22;4464;50.882;4.730;2023-03-12T05:47:10;5.20;99.90
8856;DHT22;4464;50.882;4.730;2023-03-12T05:49:38;5.30;99.90
8856;DHT22;4464;50.882;4.730;2023-03-12T05:52:07;5.30;99.90
8856;DHT22;4464;50.882;4.730;2023-03-12T05:54:35;5.20;99.90
8856;DHT22;4464;50.882;4.730;2023-03-12T05:57:03;5.30;99.90
8856;DHT22;4464;50.882;4.730;2023-03-12T05:59:29;5.30;99.90
8856;DHT22;4464;50.882;4.730;2023-03-12T06:01:55;5.30;99.90
8856;DHT22;4464;50.882;4.730;2023-03-12T06:04:21;5.40;99.90
8856;DHT22;4464;50.882;4.730;2023-03-12T06:06:49;5.40;99.90
8856;DHT22;4464;50.882;4.730;2023-03-12T06:09:17;5.40;99.90
8856;DHT22;4464;50.882;4.730;2023-03-12T06:11:43;5.50;99.90
8856;DHT22;4464;50.882;4.730;2023-03-12T06:14:08;5.50;99.90
8856;DHT22;4464;50.882;4.730;2023-03-12T06:16:37;5.60;99.90
8856;DHT22;4464;50.882;4.730;2023-03-12T06:19:03;5.60;99.90
8856;DHT22;4464;50.882;4.730;2023-03-12T06:21:34;5.70;99.90
8856;DHT22;4464;50.882;4.730;2023-03-12T06:24:01;5.70;99.90
8856;DHT22;4464;50.882;4.730;2023-03-12T06:26:27;5.70;99.90
8856;DHT22;4464;50.882;4.730;2023-03-12T06:28:53;5.70;99.90
8856;DHT22;4464;50.882;4.730;2023-03-12T06:31:22;5.80;99.90
8856;DHT22;4464;50.882;4.730;2023-03-12T06:33:50;5.90;99.90
8856;DHT22;4464;50.882;4.730;2023-03-12T06:36:18;5.90;99.90
8856;DHT22;4464;50.882;4.730;2023-03-12T06:38:44;5.80;99.90
8856;DHT22;4464;50.882;4.730;2023-03-12T06:41:15;5.90;99.90
8856;DHT22;4464;50.882;4.730;2023-03-12T06:43:43;6.00;99.90
8856;DHT22;4464;50.882;4.730;2023-03-12T06:46:12;6.00;99.90
8856;DHT22;4464;50.882;4.730;2023-03-12T06:48:41;6.00;99.90
8856;DHT22;4464;50.882;4.730;2023-03-12T06:51:11;6.10;99.90
8856;DHT22;4464;50.882;4.730;2023-03-12T06:53:37;6.10;99.90
8856;DHT22;4464;50.882;4.730;2023-03-12T06:56:05;6.20;99.90
8856;DHT22;4464;50.882;4.730;2023-03-12T06:58:32;6.20;99.90
8856;DHT22;4464;50.882;4.730;2023-03-12T07:01:00;6.20;99.90
8856;DHT22;4464;50.882;4.730;2023-03-12T07:03:25;6.30;99.90
8856;DHT22;4464;50.882;4.730;2023-03-12T07:05:51;6.30;99.90
8856;DHT22;4464;50.882;4.730;2023-03-12T07:08:24;6.40;99.90
8856;DHT22;4464;50.882;4.730;2023-03-12T07:10:51;6.40;99.90
8856;DHT22;4464;50.882;4.730;2023-03-12T07:13:16;6.50;99.90
8856;DHT22;4464;50.882;4.730;2023-03-12T07:15:42;6.50;99.90
8856;DHT22;4464;50.882;4.730;2023-03-12T07:18:10;6.60;99.90
8856;DHT22;4464;50.882;4.730;2023-03-12T07:20:41;6.70;99.90
8856;DHT22;4464;50.882;4.730;2023-03-12T07:23:08;6.70;99.90
8856;DHT22;4464;50.882;4.730;2023-03-12T07:25:35;6.70;99.90
8856;DHT22;4464;50.882;4.730;2023-03-12T07:28:04;6.80;99.90
8856;DHT22;4464;50.882;4.730;2023-03-12T07:30:30;6.80;99.90
8856;DHT22;4464;50.882;4.730;2023-03-12T07:33:02;6.90;99.90
8856;DHT22;4464;50.882;4.730;2023-03-12T07:35:29;7.00;99.90
8856;DHT22;4464;50.882;4.730;2023-03-12T07:37:55;7.00;99.90
8856;DHT22;4464;50.882;4.730;2023-03-12T07:40:22;7.10;99.90
8856;DHT22;4464;50.882;4.730;2023-03-12T07:42:49;7.20;99.90
8856;DHT22;4464;50.882;4.730;2023-03-12T07:45:18;7.20;99.90
8856;DHT22;4464;50.882;4.730;2023-03-12T07:47:46;7.30;99.90
8856;DHT22;4464;50.882;4.730;2023-03-12T07:50:13;7.30;99.90
8856;DHT22;4464;50.882;4.730;2023-03-12T07:52:39;7.30;99.90
8856;DHT22;4464;50.882;4.730;2023-03-12T07:55:05;7.40;99.90
8856;DHT22;4464;50.882;4.730;2023-03-12T07:57:36;7.40;99.90
8856;DHT22;4464;50.882;4.730;2023-03-12T08:00:03;7.60;99.90
8856;DHT22;4464;50.882;4.730;2023-03-12T08:02:32;7.70;99.90
8856;DHT22;4464;50.882;4.730;2023-03-12T08:04:58;7.70;99.90
8856;DHT22;4464;50.882;4.730;2023-03-12T08:07:27;7.80;99.90
8856;DHT22;4464;50.882;4.730;2023-03-12T08:10:01;7.90;99.90
8856;DHT22;4464;50.882;4.730;2023-03-12T08:12:29;8.00;99.90
8856;DHT22;4464;50.882;4.730;2023-03-12T08:14:55;8.10;99.90
8856;DHT22;4464;50.882;4.730;2023-03-12T08:17:24;8.20;99.90
8856;DHT22;4464;50.882;4.730;2023-03-12T08:19:50;8.30;99.90
8856;DHT22;4464;50.882;4.730;2023-03-12T08:22:18;8.40;99.90
8856;DHT22;4464;50.882;4.730;2023-03-12T08:24:43;8.40;99.90
8856;DHT22;4464;50.882;4.730;2023-03-12T08:27:09;8.50;99.90
8856;DHT22;4464;50.882;4.730;2023-03-12T08:29:37;8.60;99.90
8856;DHT22;4464;50.882;4.730;2023-03-12T08:32:03;8.60;99.90
8856;DHT22;4464;50.882;4.730;2023-03-12T08:34:29;8.70;99.90
8856;DHT22;4464;50.882;4.730;2023-03-12T08:36:57;8.70;99.90
8856;DHT22;4464;50.882;4.730;2023-03-12T08:39:25;8.80;99.90
8856;DHT22;4464;50.882;4.730;2023-03-12T08:41:51;8.80;99.90
8856;DHT22;4464;50.882;4.730;2023-03-12T08:44:23;8.80;99.90
8856;DHT22;4464;50.882;4.730;2023-03-12T08:46:49;8.90;99.90
8856;DHT22;4464;50.882;4.730;2023-03-12T08:49:15;8.90;99.90
8856;DHT22;4464;50.882;4.730;2023-03-12T08:51:41;9.00;99.90
8856;DHT22;4464;50.882;4.730;2023-03-12T08:54:07;9.00;99.90
8856;DHT22;4464;50.882;4.730;2023-03-12T08:56:34;9.10;99.90
8856;DHT22;4464;50.882;4.730;2023-03-12T08:59:01;9.20;99.90
8856;DHT22;4464;50.882;4.730;2023-03-12T09:01:27;9.20;99.90
8856;DHT22;4464;50.882;4.730;2023-03-12T09:03:53;9.30;99.90
8856;DHT22;4464;50.882;4.730;2023-03-12T09:06:20;9.40;99.90
8856;DHT22;4464;50.882;4.730;2023-03-12T09:08:46;9.40;99.90
8856;DHT22;4464;50.882;4.730;2023-03-12T09:11:13;9.50;99.90
8856;DHT22;4464;50.882;4.730;2023-03-12T09:13:42;9.60;99.90
8856;DHT22;4464;50.882;4.730;2023-03-12T09:16:08;9.70;99.90
8856;DHT22;4464;50.882;4.730;2023-03-12T09:18:36;9.70;99.90
8856;DHT22;4464;50.882;4.730;2023-03-12T09:21:04;9.90;99.90
8856;DHT22;4464;50.882;4.730;2023-03-12T09:23:31;10.10;99.90
8856;DHT22;4464;50.882;4.730;2023-03-12T09:25:57;10.20;99.90
8856;DHT22;4464;50.882;4.730;2023-03-12T09:28:23;10.50;99.90
8856;DHT22;4464;50.882;4.730;2023-03-12T09:30:51;10.70;99.90
8856;DHT22;4464;50.882;4.730;2023-03-12T09:33:17;10.90;99.90
8856;DHT22;4464;50.882;4.730;2023-03-12T09:35:43;11.00;99.90
8856;DHT22;4464;50.882;4.730;2023-03-12T09:38:13;11.20;99.90
8856;DHT22;4464;50.882;4.730;2023-03-12T09:40:45;11.30;99.90
8856;DHT22;4464;50.882;4.730;2023-03-12T09:43:32;11.40;99.90
8856;DHT22;4464;50.882;4.730;2023-03-12T09:46:04;11.40;99.90
8856;DHT22;4464;50.882;4.730;2023-03-12T09:48:36;11.40;99.90
8856;DHT22;4464;50.882;4.730;2023-03-12T09:51:19;11.50;99.90
8856;DHT22;4464;50.882;4.730;2023-03-12T09:53:52;12.10;99.90
8856;DHT22;4464;50.882;4.730;2023-03-12T09:56:22;12.60;99.90
8856;DHT22;4464;50.882;4.730;2023-03-12T09:58:48;13.20;99.90
8856;DHT22;4464;50.882;4.730;2023-03-12T10:06:36;14.60;99.90
8856;DHT22;4464;50.882;4.730;2023-03-12T10:11:58;13.80;99.90
8856;DHT22;4464;50.882;4.730;2023-03-12T10:14:46;13.60;99.90
8856;DHT22;4464;50.882;4.730;2023-03-12T10:17:44;13.50;99.90
8856;DHT22;4464;50.882;4.730;2023-03-12T10:20:25;13.50;99.90
8856;DHT22;4464;50.882;4.730;2023-03-12T10:23:33;13.80;99.90
8856;DHT22;4464;50.882;4.730;2023-03-12T10:28:48;14.00;99.90
8856;DHT22;4464;50.882;4.730;2023-03-12T10:31:22;13.60;99.90
8856;DHT22;4464;50.882;4.730;2023-03-12T10:34:01;13.30;99.90
8856;DHT22;4464;50.882;4.730;2023-03-12T10:36:38;13.10;99.90
8856;DHT22;4464;50.882;4.730;2023-03-12T10:39:14;12.90;99.90
8856;DHT22;4464;50.882;4.730;2023-03-12T10:41:42;12.60;99.90
8856;DHT22;4464;50.882;4.730;2023-03-12T10:44:19;12.40;99.90
8856;DHT22;4464;50.882;4.730;2023-03-12T10:47:00;12.30;99.90
8856;DHT22;4464;50.882;4.730;2023-03-12T10:49:34;12.50;99.90
8856;DHT22;4464;50.882;4.730;2023-03-12T10:54:37;12.60;99.90
8856;DHT22;4464;50.882;4.730;2023-03-12T10:57:05;12.60;99.90
8856;DHT22;4464;50.882;4.730;2023-03-12T10:59:41;12.70;99.90
8856;DHT22;4464;50.882;4.730;2023-03-12T11:02:43;12.80;99.90
8856;DHT22;4464;50.882;4.730;2023-03-12T11:05:46;12.90;99.90
8856;DHT22;4464;50.882;4.730;2023-03-12T11:08:23;13.00;99.90
8856;DHT22;4464;50.882;4.730;2023-03-12T11:10:54;13.10;99.90
8856;DHT22;4464;50.882;4.730;2023-03-12T11:13:31;13.40;99.90
8856;DHT22;4464;50.882;4.730;2023-03-12T11:16:00;13.50;99.90
8856;DHT22;4464;50.882;4.730;2023-03-12T11:18:37;13.30;99.90
8856;DHT22;4464;50.882;4.730;2023-03-12T11:26:46;13.10;99.90
8856;DHT22;4464;50.882;4.730;2023-03-12T11:29:33;13.10;99.90
8856;DHT22;4464;50.882;4.730;2023-03-12T11:34:42;13.00;99.90
8856;DHT22;4464;50.882;4.730;2023-03-12T11:37:35;13.20;99.90
8856;DHT22;4464;50.882;4.730;2023-03-12T11:48:55;13.00;99.90
8856;DHT22;4464;50.882;4.730;2023-03-12T11:56:50;13.10;99.90
8856;DHT22;4464;50.882;4.730;2023-03-12T12:12:26;13.50;99.90
8856;DHT22;4464;50.882;4.730;2023-03-12T12:15:27;13.70;99.90
8856;DHT22;4464;50.882;4.730;2023-03-12T12:17:58;13.50;99.90
8856;DHT22;4464;50.882;4.730;2023-03-12T12:23:17;13.40;99.90
8856;DHT22;4464;50.882;4.730;2023-03-12T12:26:09;13.30;99.90
8856;DHT22;4464;50.882;4.730;2023-03-12T12:29:15;13.90;99.90
8856;DHT22;4464;50.882;4.730;2023-03-12T12:39:49;13.30;99.90
8856;DHT22;4464;50.882;4.730;2023-03-12T12:42:23;13.30;99.90
8856;DHT22;4464;50.882;4.730;2023-03-12T12:44:52;13.20;99.90
8856;DHT22;4464;50.882;4.730;2023-03-12T12:48:11;13.30;99.90
8856;DHT22;4464;50.882;4.730;2023-03-12T12:50:37;13.40;99.90
8856;DHT22;4464;50.882;4.730;2023-03-12T12:58:22;13.80;99.90
8856;DHT22;4464;50.882;4.730;2023-03-12T13:00:54;13.70;99.90
8856;DHT22;4464;50.882;4.730;2023-03-12T13:03:27;13.60;99.90
8856;DHT22;4464;50.882;4.730;2023-03-12T13:06:02;13.50;99.90
8856;DHT22;4464;50.882;4.730;2023-03-12T13:13:48;14.10;99.90
8856;DHT22;4464;50.882;4.730;2023-03-12T13:16:31;14.40;99.90
8856;DHT22;4464;50.882;4.730;2023-03-12T13:19:06;14.40;99.90
8856;DHT22;4464;50.882;4.730;2023-03-12T13:21:49;14.20;99.90
8856;DHT22;4464;50.882;4.730;2023-03-12T13:24:21;13.70;99.90
8856;DHT22;4464;50.882;4.730;2023-03-12T13:27:04;13.90;99.90
8856;DHT22;4464;50.882;4.730;2023-03-12T13:29:38;14.30;99.90
8856;DHT22;4464;50.882;4.730;2023-03-12T13:32:07;14.50;99.90
8856;DHT22;4464;50.882;4.730;2023-03-12T13:34:48;14.80;99.90
8856;DHT22;4464;50.882;4.730;2023-03-12T13:37:28;15.00;99.90
8856;DHT22;4464;50.882;4.730;2023-03-12T13:39:59;14.50;99.90
8856;DHT22;4464;50.882;4.730;2023-03-12T13:42:35;14.60;99.90
8856;DHT22;4464;50.882;4.730;2023-03-12T13:45:23;14.00;99.90
8856;DHT22;4464;50.882;4.730;2023-03-12T13:47:54;13.50;99.90
8856;DHT22;4464;50.882;4.730;2023-03-12T13:50:21;13.30;99.90
8856;DHT22;4464;50.882;4.730;2023-03-12T13:52:49;13.30;99.90
8856;DHT22;4464;50.882;4.730;2023-03-12T13:55:23;13.30;99.90
8856;DHT22;4464;50.882;4.730;2023-03-12T13:57:57;13.40;99.90
8856;DHT22;4464;50.882;4.730;2023-03-12T14:00:50;13.80;99.90
8856;DHT22;4464;50.882;4.730;2023-03-12T14:03:34;14.40;99.90
8856;DHT22;4464;50.882;4.730;2023-03-12T14:06:06;14.60;99.90
8856;DHT22;4464;50.882;4.730;2023-03-12T14:17:23;14.00;99.90
8856;DHT22;4464;50.882;4.730;2023-03-12T14:22:32;13.90;99.90
8856;DHT22;4464;50.882;4.730;2023-03-12T14:25:05;13.80;99.90
8856;DHT22;4464;50.882;4.730;2023-03-12T14:27:36;13.50;99.90
8856;DHT22;4464;50.882;4.730;2023-03-12T14:30:11;13.30;99.90
8856;DHT22;4464;50.882;4.730;2023-03-12T14:32:38;13.40;99.90
8856;DHT22;4464;50.882;4.730;2023-03-12T14:35:32;13.70;99.90
8856;DHT22;4464;50.882;4.730;2023-03-12T14:40:56;13.50;99.90
8856;DHT22;4464;50.882;4.730;2023-03-12T14:43:33;13.50;99.90
8856;DHT22;4464;50.882;4.730;2023-03-12T14:46:02;13.40;99.90
8856;DHT22;4464;50.882;4.730;2023-03-12T14:48:34;13.30;99.90
8856;DHT22;4464;50.882;4.730;2023-03-12T14:51:02;13.30;99.90
8856;DHT22;4464;50.882;4.730;2023-03-12T14:53:37;13.30;99.90
8856;DHT22;4464;50.882;4.730;2023-03-12T14:56:25;13.30;99.90
8856;DHT22;4464;50.882;4.730;2023-03-12T14:58:56;13.40;99.90
8856;DHT22;4464;50.882;4.730;2023-03-12T15:01:30;13.30;99.90
8856;DHT22;4464;50.882;4.730;2023-03-12T15:04:01;13.30;99.90
8856;DHT22;4464;50.882;4.730;2023-03-12T15:09:22;13.40;99.90
8856;DHT22;4464;50.882;4.730;2023-03-12T15:11:56;13.50;99.90
8856;DHT22;4464;50.882;4.730;2023-03-12T15:14:25;13.70;99.90
8856;DHT22;4464;50.882;4.730;2023-03-12T15:16:52;13.70;99.90
8856;DHT22;4464;50.882;4.730;2023-03-12T15:19:23;13.70;99.90
8856;DHT22;4464;50.882;4.730;2023-03-12T15:21:51;13.80;99.90
8856;DHT22;4464;50.882;4.730;2023-03-12T15:24:19;13.90;99.90
8856;DHT22;4464;50.882;4.730;2023-03-12T15:26:45;13.90;99.90
8856;DHT22;4464;50.882;4.730;2023-03-12T15:29:23;13.70;99.90
8856;DHT22;4464;50.882;4.730;2023-03-12T15:31:59;13.60;99.90
8856;DHT22;4464;50.882;4.730;2023-03-12T15:34:36;13.40;99.90
8856;DHT22;4464;50.882;4.730;2023-03-12T15:37:27;13.20;99.90
8856;DHT22;4464;50.882;4.730;2023-03-12T15:39:57;13.00;99.90
8856;DHT22;4464;50.882;4.730;2023-03-12T15:42:25;13.00;99.90
8856;DHT22;4464;50.882;4.730;2023-03-12T15:45:00;13.00;99.90
8856;DHT22;4464;50.882;4.730;2023-03-12T15:47:32;13.00;99.90
8856;DHT22;4464;50.882;4.730;2023-03-12T15:52:35;12.90;99.90
8856;DHT22;4464;50.882;4.730;2023-03-12T15:57:36;12.90;99.90
8856;DHT22;4464;50.882;4.730;2023-03-12T16:05:16;12.90;99.90
8856;DHT22;4464;50.882;4.730;2023-03-12T16:07:41;12.90;99.90
8856;DHT22;4464;50.882;4.730;2023-03-12T16:10:15;12.80;99.90
8856;DHT22;4464;50.882;4.730;2023-03-12T16:12:43;12.80;99.90
8856;DHT22;4464;50.882;4.730;2023-03-12T16:15:17;12.80;99.90
8856;DHT22;4464;50.882;4.730;2023-03-12T16:17:44;12.80;99.90
8856;DHT22;4464;50.882;4.730;2023-03-12T16:20:12;12.80;99.90
8856;DHT22;4464;50.882;4.730;2023-03-12T16:22:39;12.80;99.90
8856;DHT22;4464;50.882;4.730;2023-03-12T16:25:07;12.80;99.90
8856;DHT22;4464;50.882;4.730;2023-03-12T16:27:38;12.80;99.90
8856;DHT22;4464;50.882;4.730;2023-03-12T16:30:14;12.70;99.90
8856;DHT22;4464;50.882;4.730;2023-03-12T16:32:40;12.70;99.90
8856;DHT22;4464;50.882;4.730;2023-03-12T16:35:14;12.70;99.90
8856;DHT22;4464;50.882;4.730;2023-03-12T16:37:45;12.70;99.90
8856;DHT22;4464;50.882;4.730;2023-03-12T16:40:15;12.70;99.90
8856;DHT22;4464;50.882;4.730;2023-03-12T16:42:46;12.70;99.90
8856;DHT22;4464;50.882;4.730;2023-03-12T16:45:16;12.70;99.90
8856;DHT22;4464;50.882;4.730;2023-03-12T16:47:43;12.60;99.90
8856;DHT22;4464;50.882;4.730;2023-03-12T16:50:20;12.60;99.90
8856;DHT22;4464;50.882;4.730;2023-03-12T16:52:49;12.60;99.90
8856;DHT22;4464;50.882;4.730;2023-03-12T16:55:19;12.60;99.90
8856;DHT22;4464;50.882;4.730;2023-03-12T16:57:52;12.60;99.90
8856;DHT22;4464;50.882;4.730;2023-03-12T17:00:23;12.60;99.90
8856;DHT22;4464;50.882;4.730;2023-03-12T17:02:52;12.50;99.90
8856;DHT22;4464;50.882;4.730;2023-03-12T17:05:23;12.40;99.90
8856;DHT22;4464;50.882;4.730;2023-03-12T17:07:49;12.40;99.90
8856;DHT22;4464;50.882;4.730;2023-03-12T17:10:15;12.40;99.90
8856;DHT22;4464;50.882;4.730;2023-03-12T17:12:42;12.30;99.90
8856;DHT22;4464;50.882;4.730;2023-03-12T17:15:20;12.30;99.90
8856;DHT22;4464;50.882;4.730;2023-03-12T17:17:50;12.30;99.90
8856;DHT22;4464;50.882;4.730;2023-03-12T17:20:18;12.30;99.90
8856;DHT22;4464;50.882;4.730;2023-03-12T17:22:44;12.20;99.90
8856;DHT22;4464;50.882;4.730;2023-03-12T17:25:24;12.20;99.90
8856;DHT22;4464;50.882;4.730;2023-03-12T17:27:50;12.10;99.90
8856;DHT22;4464;50.882;4.730;2023-03-12T17:30:16;12.10;99.90
8856;DHT22;4464;50.882;4.730;2023-03-12T17:32:42;12.00;99.90
8856;DHT22;4464;50.882;4.730;2023-03-12T17:35:08;12.00;99.90
8856;DHT22;4464;50.882;4.730;2023-03-12T17:37:34;11.90;99.90
8856;DHT22;4464;50.882;4.730;2023-03-12T17:40:00;11.90;99.90
8856;DHT22;4464;50.882;4.730;2023-03-12T17:42:34;11.80;99.90
8856;DHT22;4464;50.882;4.730;2023-03-12T17:45:01;11.70;99.90
8856;DHT22;4464;50.882;4.730;2023-03-12T17:47:27;11.70;99.90
8856;DHT22;4464;50.882;4.730;2023-03-12T17:49:53;11.70;99.90
8856;DHT22;4464;50.882;4.730;2023-03-12T17:52:19;11.60;99.90
8856;DHT22;4464;50.882;4.730;2023-03-12T17:54:44;11.60;99.90
8856;DHT22;4464;50.882;4.730;2023-03-12T17:57:12;11.60;99.90
8856;DHT22;4464;50.882;4.730;2023-03-12T17:59:40;11.50;99.90
8856;DHT22;4464;50.882;4.730;2023-03-12T18:02:08;11.50;99.90
8856;DHT22;4464;50.882;4.730;2023-03-12T18:04:36;11.60;99.90
8856;DHT22;4464;50.882;4.730;2023-03-12T18:07:04;11.60;99.90
8856;DHT22;4464;50.882;4.730;2023-03-12T18:09:31;11.60;99.90
8856;DHT22;4464;50.882;4.730;2023-03-12T18:11:57;11.50;99.90
8856;DHT22;4464;50.882;4.730;2023-03-12T18:14:23;11.50;99.90